createdAt,value
2024-05-09T00:02:24.766Z,9.60
2024-05-09T00:04:54.934Z,9.48
2024-05-09T00:07:25.026Z,9.25
2024-05-09T00:09:54.984Z,8.93
2024-05-09T00:12:25.080Z,9.68
2024-05-09T00:14:57.767Z,9.13
2024-05-09T00:17:27.895Z,9.10
2024-05-09T00:19:57.961Z,9.18
2024-05-09T00:22:27.962Z,8.75
2024-05-09T00:24:57.926Z,8.68
2024-05-09T00:27:28.466Z,8.95
2024-05-09T00:30:01.134Z,9.20
2024-05-09T00:32:31.353Z,8.68
2024-05-09T00:35:01.558Z,8.70
2024-05-09T00:37:31.583Z,9.23
2024-05-09T00:40:01.544Z,8.20
2024-05-09T00:42:31.523Z,8.70
2024-05-09T00:45:04.115Z,7.65
2024-05-09T00:47:34.416Z,8.00
2024-05-09T00:50:09.805Z,7.28
2024-05-09T00:52:43.271Z,7.43
2024-05-09T00:55:13.385Z,7.57
2024-05-09T00:57:43.815Z,7.45
2024-05-09T01:00:26.122Z,8.00
2024-05-09T01:03:01.153Z,7.53
2024-05-09T01:05:32.209Z,7.40
2024-05-09T01:08:02.444Z,7.50
2024-05-09T01:10:35.165Z,7.28
2024-05-09T01:13:07.067Z,7.70
2024-05-09T01:15:40.062Z,7.50
2024-05-09T01:18:13.470Z,7.38
2024-05-09T01:20:45.438Z,7.65
2024-05-09T01:23:18.355Z,8.00
2024-05-09T01:25:48.671Z,7.32
2024-05-09T01:28:18.651Z,7.38
2024-05-09T01:30:48.607Z,7.72
2024-05-09T01:33:18.747Z,7.47
2024-05-09T01:35:48.809Z,7.30
2024-05-09T01:38:21.439Z,7.50
2024-05-09T01:40:52.419Z,6.97
2024-05-09T01:43:22.382Z,7.05
2024-05-09T01:45:52.350Z,7.07
2024-05-09T01:48:22.515Z,7.68
2024-05-09T01:50:52.676Z,7.35
2024-05-09T01:53:25.444Z,7.43
2024-05-09T01:55:55.516Z,6.68
2024-05-09T01:58:25.526Z,7.22
2024-05-09T02:00:55.719Z,6.80
2024-05-09T02:03:25.879Z,6.45
2024-05-09T02:05:55.994Z,7.07
2024-05-09T02:08:28.757Z,6.57
2024-05-09T02:10:58.952Z,6.43
2024-05-09T02:13:28.985Z,6.57
2024-05-09T02:15:59.244Z,6.25
2024-05-09T02:18:29.302Z,6.38
2024-05-09T02:20:59.335Z,6.38
2024-05-09T02:23:32.037Z,5.97
2024-05-09T02:26:02.027Z,6.05
2024-05-09T02:28:32.035Z,6.75
2024-05-09T02:31:02.063Z,6.40
2024-05-09T02:33:32.180Z,6.95
2024-05-09T02:36:02.221Z,6.50
2024-05-09T02:38:32.337Z,6.63
2024-05-09T02:41:02.442Z,6.65
2024-05-09T02:43:29.774Z,6.38
2024-05-09T02:45:59.730Z,6.72
2024-05-09T02:48:27.202Z,6.63
2024-05-09T02:50:57.285Z,6.25
2024-05-09T02:53:24.720Z,5.88
2024-05-09T02:55:57.497Z,6.50
2024-05-09T02:58:27.490Z,6.00
2024-05-09T03:00:54.948Z,5.63
2024-05-09T03:03:26.389Z,6.38
2024-05-09T03:05:54.013Z,6.50
2024-05-09T03:08:24.070Z,5.53
2024-05-09T03:10:54.097Z,6.40
2024-05-09T03:13:24.326Z,5.43
2024-05-09T03:15:51.774Z,5.55
2024-05-09T03:18:21.888Z,5.90
2024-05-09T03:20:49.427Z,6.22
2024-05-09T03:23:19.599Z,5.97
2024-05-09T03:25:46.965Z,5.93
2024-05-09T03:28:19.603Z,5.95
2024-05-09T03:30:46.928Z,6.00
2024-05-09T03:33:19.382Z,6.57
2024-05-09T03:35:48.872Z,6.10
2024-05-09T03:38:19.433Z,6.30
2024-05-09T03:40:50.539Z,6.15
2024-05-09T03:45:50.803Z,5.78
2024-05-09T03:48:21.231Z,6.10
2024-05-09T03:50:49.023Z,6.47
2024-05-09T03:53:19.238Z,6.00
2024-05-09T03:55:46.721Z,6.20
2024-05-09T03:58:16.772Z,5.95
2024-05-09T04:00:46.893Z,5.80
2024-05-09T04:03:17.389Z,5.35
2024-05-09T04:05:45.091Z,5.75
2024-05-09T04:08:15.773Z,6.40
2024-05-09T04:10:43.524Z,6.38
2024-05-09T04:13:13.670Z,6.57
2024-05-09T04:15:41.017Z,6.63
2024-05-09T04:18:13.621Z,6.95
2024-05-09T04:20:41.586Z,6.60
2024-05-09T04:23:15.054Z,6.13
2024-05-09T04:25:43.705Z,5.85
2024-05-09T04:28:13.832Z,6.38
2024-05-09T04:30:47.126Z,5.57
2024-05-09T04:33:20.857Z,5.68
2024-05-09T04:35:49.595Z,5.78
2024-05-09T04:38:19.712Z,5.82
2024-05-09T04:40:47.162Z,5.55
2024-05-09T04:43:19.634Z,5.90
2024-05-09T04:45:47.309Z,5.22
2024-05-09T04:48:20.108Z,5.80
2024-05-09T04:50:47.598Z,5.65
2024-05-09T04:53:18.989Z,5.82
2024-05-09T04:55:46.524Z,5.47
2024-05-09T04:58:16.553Z,6.65
2024-05-09T05:00:43.949Z,6.47
2024-05-09T05:03:15.871Z,6.28
2024-05-09T05:05:46.891Z,5.90
2024-05-09T05:08:18.209Z,5.07
2024-05-09T05:10:47.326Z,5.65
2024-05-09T05:13:24.714Z,5.75
2024-05-09T05:15:56.522Z,5.55
2024-05-09T05:18:28.549Z,5.20
2024-05-09T05:20:58.855Z,4.85
2024-05-09T05:23:28.950Z,5.28
2024-05-09T05:25:56.408Z,5.05
2024-05-09T05:28:26.516Z,5.65
2024-05-09T05:30:53.906Z,5.28
2024-05-09T05:33:24.671Z,4.97
2024-05-09T05:35:52.112Z,5.43
2024-05-09T05:38:27.511Z,5.32
2024-05-09T05:40:55.951Z,5.55
2024-05-09T05:43:26.060Z,6.00
2024-05-09T05:45:53.408Z,5.35
2024-05-09T05:48:23.627Z,5.05
2024-05-09T05:50:51.103Z,5.20
2024-05-09T05:53:21.212Z,5.10
2024-05-09T05:55:51.248Z,5.15
2024-05-09T05:58:21.681Z,4.88
2024-05-09T06:00:49.091Z,4.80
2024-05-09T06:03:19.102Z,4.93
2024-05-09T06:05:46.941Z,5.18
2024-05-09T06:08:17.379Z,4.85
2024-05-09T06:10:45.082Z,4.82
2024-05-09T06:13:18.292Z,4.50
2024-05-09T06:15:45.627Z,4.22
2024-05-09T06:18:17.008Z,3.47
2024-05-09T06:20:44.699Z,3.70
2024-05-09T06:23:15.318Z,3.20
2024-05-09T06:25:44.086Z,3.55
2024-05-09T06:28:14.222Z,2.85
2024-05-09T06:30:44.182Z,2.65
2024-05-09T06:33:16.368Z,2.63
2024-05-09T06:35:44.732Z,2.72
2024-05-09T06:38:15.089Z,2.30
2024-05-09T06:40:43.877Z,2.40
2024-05-09T06:43:17.354Z,2.58
2024-05-09T06:45:49.869Z,2.58
2024-05-09T06:48:21.849Z,2.63
2024-05-09T06:50:50.749Z,2.63
2024-05-09T06:53:24.177Z,2.05
2024-05-09T06:55:51.781Z,2.70
2024-05-09T06:58:21.823Z,2.25
2024-05-09T07:00:51.965Z,2.22
2024-05-09T07:03:22.168Z,2.20
2024-05-09T07:05:50.060Z,2.20
2024-05-09T07:08:20.327Z,2.38
2024-05-09T07:10:47.996Z,2.28
2024-05-09T07:13:18.497Z,2.35
2024-05-09T07:15:45.830Z,2.00
2024-05-09T07:18:20.365Z,2.15
2024-05-09T07:20:49.398Z,2.40
2024-05-09T07:23:20.699Z,2.78
2024-05-09T07:25:48.346Z,2.95
2024-05-09T07:28:19.660Z,3.13
2024-05-09T07:33:24.047Z,3.30
2024-05-09T07:35:54.754Z,2.80
2024-05-09T07:38:22.224Z,3.10
2024-05-09T07:40:52.491Z,3.17
2024-05-09T07:43:19.952Z,2.80
2024-05-09T07:45:54.087Z,2.38
2024-05-09T07:50:00.233Z,2.88
2024-05-09T07:53:51.025Z,2.30
2024-05-09T07:56:24.416Z,2.28
2024-05-09T07:58:53.510Z,1.95
2024-05-09T08:01:25.870Z,1.85
2024-05-09T08:03:56.488Z,1.73
2024-05-09T08:06:27.398Z,1.70
2024-05-09T08:08:54.835Z,1.52
2024-05-09T08:11:24.866Z,3.05
2024-05-09T08:13:52.294Z,3.17
2024-05-09T08:16:22.555Z,3.65
2024-05-09T08:18:50.211Z,3.43
2024-05-09T08:21:22.913Z,4.00
2024-05-09T08:23:50.349Z,3.80
2024-05-09T08:26:20.285Z,3.83
2024-05-09T08:28:47.689Z,3.55
2024-05-09T08:31:18.070Z,3.75
2024-05-09T08:33:47.668Z,3.22
2024-05-09T08:36:18.084Z,3.60
2024-05-09T08:38:48.063Z,3.17
2024-05-09T08:41:18.304Z,2.60
2024-05-09T08:43:47.070Z,1.95
2024-05-09T08:46:18.871Z,2.85
2024-05-09T08:48:48.314Z,2.38
2024-05-09T08:51:18.537Z,2.38
2024-05-09T08:53:48.610Z,2.22
2024-05-09T08:56:20.002Z,2.30
2024-05-09T08:58:49.759Z,2.15
2024-05-09T09:01:21.822Z,2.50
2024-05-09T09:03:53.603Z,2.30
2024-05-09T09:06:25.140Z,2.20
2024-05-09T09:08:55.632Z,2.00
2024-05-09T09:11:25.910Z,2.30
2024-05-09T09:13:53.222Z,1.90
2024-05-09T09:16:23.518Z,1.77
2024-05-09T09:18:53.608Z,1.95
2024-05-09T09:21:23.625Z,1.70
2024-05-09T09:23:50.933Z,1.98
2024-05-09T09:26:23.546Z,1.90
2024-05-09T09:28:51.030Z,1.95
2024-05-09T09:31:21.835Z,1.83
2024-05-09T09:36:19.775Z,2.10
2024-05-09T09:38:47.900Z,2.30
2024-05-09T09:41:25.142Z,1.80
2024-05-09T09:43:53.746Z,2.30
2024-05-09T09:46:24.727Z,2.47
2024-05-09T09:48:53.166Z,2.20
2024-05-09T09:51:24.302Z,1.95
2024-05-09T09:53:53.504Z,2.50
2024-05-09T09:56:26.694Z,2.33
2024-05-09T09:58:56.650Z,2.58
2024-05-09T10:01:26.683Z,2.77
2024-05-09T10:03:54.407Z,2.70
2024-05-09T10:06:25.758Z,2.95
2024-05-09T10:08:54.175Z,2.67
2024-05-09T10:11:27.413Z,2.58
2024-05-09T10:13:56.987Z,2.60
2024-05-09T10:16:27.621Z,4.25
2024-05-09T10:18:55.336Z,2.70
2024-05-09T10:21:25.587Z,2.47
2024-05-09T10:24:00.027Z,2.70
2024-05-09T10:26:36.660Z,2.40
2024-05-09T10:29:12.465Z,3.20
2024-05-09T10:31:45.009Z,2.42
2024-05-09T10:34:22.884Z,2.35
2024-05-09T10:36:56.583Z,2.40
2024-05-09T10:39:25.630Z,2.50
2024-05-09T10:41:58.265Z,2.45
2024-05-09T10:44:25.653Z,2.30
2024-05-09T10:46:56.404Z,2.45
2024-05-09T10:49:23.896Z,2.13
2024-05-09T10:51:55.973Z,2.28
2024-05-09T10:54:23.325Z,2.03
2024-05-09T10:57:01.747Z,2.10
2024-05-09T10:59:33.937Z,2.10
2024-05-09T11:02:07.890Z,2.30
2024-05-09T11:04:36.960Z,1.92
2024-05-09T11:07:11.366Z,2.00
2024-05-09T11:09:39.975Z,1.77
2024-05-09T11:12:13.131Z,2.08
2024-05-09T11:14:40.560Z,1.98
2024-05-09T11:17:11.099Z,1.88
2024-05-09T11:19:40.022Z,1.70
2024-05-09T11:22:12.599Z,1.90
2024-05-09T11:24:40.636Z,1.95
2024-05-09T11:27:13.249Z,1.73
2024-05-09T11:29:42.370Z,1.90
2024-05-09T11:32:16.441Z,1.98
2024-05-09T11:34:43.963Z,2.03
2024-05-09T11:37:14.542Z,1.90
2024-05-09T11:39:42.003Z,1.80
2024-05-09T11:42:14.671Z,2.17
2024-05-09T11:44:42.011Z,2.22
2024-05-09T11:47:12.076Z,1.60
2024-05-09T11:49:39.496Z,1.80
2024-05-09T11:52:09.677Z,2.03
2024-05-09T11:54:37.244Z,2.03
2024-05-09T11:57:07.614Z,1.52
2024-05-09T11:59:37.702Z,2.20
2024-05-09T12:02:08.053Z,2.10
2024-05-09T12:04:35.679Z,2.08
2024-05-09T12:07:06.245Z,1.70
2024-05-09T12:09:34.468Z,1.80
2024-05-09T12:12:04.605Z,2.20
2024-05-09T12:14:32.061Z,1.83
2024-05-09T12:17:05.724Z,1.80
2024-05-09T12:19:33.299Z,1.50
2024-05-09T12:22:03.470Z,1.63
2024-05-09T12:24:31.036Z,1.47
2024-05-09T12:27:01.239Z,1.67
2024-05-09T12:29:28.637Z,1.30
2024-05-09T12:31:58.728Z,1.42
2024-05-09T12:34:28.927Z,1.70
2024-05-09T12:36:58.996Z,1.70
2024-05-09T12:39:26.394Z,1.58
2024-05-09T12:41:56.345Z,1.40
2024-05-09T12:44:23.761Z,1.13
2024-05-09T12:46:54.008Z,1.20
2024-05-09T12:49:24.431Z,1.03
2024-05-09T12:51:57.242Z,1.40
2024-05-09T12:54:24.619Z,1.23
2024-05-09T12:56:54.711Z,1.30
2024-05-09T12:59:22.050Z,1.30
2024-05-09T13:01:52.142Z,1.23
2024-05-09T13:04:19.754Z,1.30
2024-05-09T13:06:50.067Z,1.33
2024-05-09T13:09:20.114Z,1.47
2024-05-09T13:11:50.260Z,1.17
2024-05-09T13:14:17.721Z,1.30
2024-05-09T13:16:47.853Z,1.27
2024-05-09T13:19:15.344Z,1.30
2024-05-09T13:21:45.375Z,1.23
2024-05-09T13:24:12.837Z,1.45
2024-05-09T13:26:45.569Z,1.20
2024-05-09T13:29:12.984Z,1.20
2024-05-09T13:31:45.865Z,1.25
2024-05-09T13:34:13.483Z,0.90
2024-05-09T13:36:43.968Z,1.00
2024-05-09T13:39:11.594Z,0.80
2024-05-09T13:41:44.478Z,1.00
2024-05-09T13:44:12.195Z,0.88
2024-05-09T13:46:45.394Z,1.00
2024-05-09T13:49:16.913Z,1.50
2024-05-09T13:51:47.271Z,1.63
2024-05-09T13:54:16.672Z,1.48
2024-05-09T13:56:49.991Z,1.45
2024-05-09T13:59:17.413Z,1.30
2024-05-09T14:01:47.537Z,1.17
2024-05-09T14:04:15.122Z,1.02
2024-05-09T14:06:45.564Z,1.20
2024-05-09T14:09:13.031Z,1.50
2024-05-09T14:11:43.069Z,1.30
2024-05-09T14:14:13.125Z,1.73
2024-05-09T14:16:44.696Z,2.00
2024-05-09T14:19:12.353Z,2.03
2024-05-09T14:21:42.548Z,2.40
2024-05-09T14:24:09.891Z,2.10
2024-05-09T14:26:40.113Z,2.00
2024-05-09T14:29:07.785Z,2.00
2024-05-09T14:31:40.472Z,1.63
2024-05-09T14:34:07.997Z,1.35
2024-05-09T14:36:38.136Z,1.80
2024-05-09T14:39:05.539Z,1.60
2024-05-09T14:41:35.689Z,1.33
2024-05-09T14:44:03.140Z,1.42
2024-05-09T14:46:33.147Z,1.50
2024-05-09T14:49:03.300Z,1.48
2024-05-09T14:51:33.378Z,1.50
2024-05-09T14:54:00.820Z,1.27
2024-05-09T14:56:30.844Z,1.50
2024-05-09T14:58:58.175Z,1.60
2024-05-09T15:01:28.336Z,2.25
2024-05-09T15:03:57.336Z,1.90
2024-05-09T15:06:30.065Z,1.70
2024-05-09T15:08:57.745Z,2.10
2024-05-09T15:11:27.967Z,1.95
2024-05-09T15:13:55.299Z,2.17
2024-05-09T15:16:25.414Z,2.00
2024-05-09T15:18:53.216Z,2.10
2024-05-09T15:21:23.819Z,1.95
2024-05-09T15:23:53.869Z,2.10
2024-05-09T15:26:24.076Z,2.03
2024-05-09T15:28:51.419Z,1.55
2024-05-09T15:31:21.441Z,1.70
2024-05-09T15:33:48.824Z,1.60
2024-05-09T15:36:18.971Z,1.38
2024-05-09T15:38:46.560Z,1.85
2024-05-09T15:41:19.190Z,1.80
2024-05-09T15:43:46.500Z,1.60
2024-05-09T15:46:16.603Z,1.92
2024-05-09T15:48:44.812Z,1.73
2024-05-09T15:51:15.015Z,1.55
2024-05-09T15:53:42.331Z,1.52
2024-05-09T15:56:13.006Z,1.90
2024-05-09T15:58:43.459Z,1.85
2024-05-09T16:01:15.110Z,1.77
2024-05-09T16:03:42.664Z,1.90
2024-05-09T16:06:13.294Z,1.90
2024-05-09T16:08:40.643Z,1.98
2024-05-09T16:11:10.708Z,2.05
2024-05-09T16:13:38.331Z,1.92
2024-05-09T16:16:11.779Z,2.10
2024-05-09T16:18:39.313Z,1.83
2024-05-09T16:21:09.445Z,2.20
2024-05-09T16:23:39.873Z,2.33
2024-05-09T16:26:10.413Z,2.10
2024-05-09T16:28:37.952Z,1.80
2024-05-09T16:31:10.776Z,1.85
2024-05-09T16:33:40.423Z,2.10
2024-05-09T16:36:10.826Z,2.13
2024-05-09T16:38:40.120Z,2.25
2024-05-09T16:41:10.064Z,2.30
2024-05-09T16:43:37.402Z,2.55
2024-05-09T16:46:10.385Z,2.60
2024-05-09T16:48:40.814Z,2.20
2024-05-09T16:51:10.877Z,2.47
2024-05-09T16:53:38.794Z,2.70
2024-05-09T16:56:09.764Z,2.42
2024-05-09T16:58:37.172Z,2.00
2024-05-09T17:01:07.628Z,2.63
2024-05-09T17:03:37.824Z,2.63
2024-05-09T17:06:08.327Z,2.70
2024-05-09T17:08:37.696Z,2.60
2024-05-09T17:11:08.118Z,2.40
2024-05-09T17:13:39.407Z,2.60
2024-05-09T17:16:12.535Z,2.60
2024-05-09T17:18:46.262Z,2.50
2024-05-09T17:21:16.377Z,2.78
2024-05-09T17:23:43.723Z,2.75
2024-05-09T17:26:14.016Z,2.47
2024-05-09T17:28:41.371Z,2.38
2024-05-09T17:31:11.419Z,2.53
2024-05-09T17:33:42.791Z,2.78
2024-05-09T17:38:40.753Z,2.70
2024-05-09T17:41:10.804Z,2.38
2024-05-09T17:43:38.211Z,2.40
2024-05-09T17:46:08.465Z,2.28
2024-05-09T17:48:36.151Z,2.63
2024-05-09T17:51:09.742Z,2.70
2024-05-09T17:53:37.270Z,2.80
2024-05-09T17:56:07.650Z,2.53
2024-05-09T17:58:35.422Z,2.50
2024-05-09T18:01:05.581Z,2.65
2024-05-09T18:03:33.320Z,2.58
2024-05-09T18:06:03.553Z,2.50
2024-05-09T18:08:33.551Z,2.55
2024-05-09T18:11:03.556Z,2.40
2024-05-09T18:13:30.982Z,2.70
2024-05-09T18:16:01.132Z,2.70
2024-05-09T18:18:28.655Z,2.60
2024-05-09T18:20:58.628Z,2.95
2024-05-09T18:23:26.030Z,2.80
2024-05-09T18:25:58.870Z,2.97
2024-05-09T18:28:26.414Z,2.55
2024-05-09T18:30:56.670Z,2.88
2024-05-09T18:33:24.924Z,2.85
2024-05-09T18:35:55.144Z,2.95
2024-05-09T18:38:26.833Z,3.53
2024-05-09T18:40:59.658Z,2.90
2024-05-09T18:43:31.673Z,3.22
2024-05-09T18:46:08.536Z,3.22
2024-05-09T18:48:36.133Z,3.30
2024-05-09T18:51:06.332Z,3.53
2024-05-09T18:53:33.720Z,3.78
2024-05-09T18:56:06.572Z,3.30
2024-05-09T18:58:33.985Z,3.33
2024-05-09T19:01:04.497Z,3.63
2024-05-09T19:03:32.331Z,3.67
2024-05-09T19:06:02.728Z,3.25
2024-05-09T19:08:30.166Z,3.50
2024-05-09T19:11:02.111Z,3.25
2024-05-09T19:13:32.222Z,3.53
2024-05-09T19:16:02.296Z,3.60
2024-05-09T19:18:30.910Z,3.53
2024-05-09T19:21:01.008Z,3.45
2024-05-09T19:23:29.007Z,3.60
2024-05-09T19:25:59.389Z,3.83
2024-05-09T19:28:26.809Z,4.00
2024-05-09T19:30:59.471Z,4.07
2024-05-09T19:33:26.886Z,3.88
2024-05-09T19:35:56.935Z,4.10
2024-05-09T19:38:24.376Z,4.50
2024-05-09T19:40:54.573Z,4.10
2024-05-09T19:43:22.176Z,4.28
2024-05-09T19:45:52.392Z,4.72
2024-05-09T19:48:25.177Z,5.10
2024-05-09T19:50:53.286Z,5.18
2024-05-09T19:53:23.598Z,4.82
2024-05-09T19:55:51.041Z,5.55
2024-05-09T19:58:21.075Z,6.00
2024-05-09T20:00:48.801Z,5.25
2024-05-09T20:03:19.266Z,5.28
2024-05-09T20:05:49.435Z,5.90
2024-05-09T20:08:19.627Z,5.70
2024-05-09T20:10:47.186Z,5.63
2024-05-09T20:13:17.275Z,5.75
2024-05-09T20:15:44.829Z,5.25
2024-05-09T20:18:15.036Z,5.28
2024-05-09T20:20:44.613Z,5.18
2024-05-09T20:23:18.120Z,5.10
2024-05-09T20:25:45.480Z,5.15
2024-05-09T20:28:15.549Z,4.30
2024-05-09T20:30:43.060Z,4.60
2024-05-09T20:33:14.279Z,4.63
2024-05-09T20:35:41.805Z,4.53
2024-05-09T20:38:11.771Z,4.70
2024-05-09T20:40:41.996Z,4.55
2024-05-09T20:43:12.223Z,4.80
2024-05-09T20:45:40.283Z,4.50
2024-05-09T20:48:12.034Z,4.25
2024-05-09T20:53:14.655Z,4.80
2024-05-09T20:55:45.679Z,5.10
2024-05-09T20:58:16.097Z,4.53
2024-05-09T21:00:45.729Z,4.85
2024-05-09T21:03:17.896Z,4.57
2024-05-09T21:05:46.045Z,4.97
2024-05-09T21:08:16.367Z,4.70
2024-05-09T21:10:46.433Z,4.07
2024-05-09T21:13:16.527Z,4.70
2024-05-09T21:15:43.991Z,4.65
2024-05-09T21:18:14.215Z,5.00
2024-05-09T21:20:41.776Z,5.43
2024-05-09T21:23:11.778Z,5.13
2024-05-09T21:25:39.097Z,5.57
2024-05-09T21:28:11.961Z,5.18
2024-05-09T21:30:42.454Z,4.80
2024-05-09T21:33:15.014Z,4.68
2024-05-09T21:35:43.836Z,5.22
2024-05-09T21:38:14.765Z,4.30
2024-05-09T21:40:42.782Z,4.87
2024-05-09T21:43:15.626Z,5.00
2024-05-09T21:45:44.036Z,5.10
2024-05-09T21:48:15.840Z,4.43
2024-05-09T21:50:43.309Z,4.78
2024-05-09T21:53:14.000Z,4.80
2024-05-09T21:55:41.819Z,4.93
2024-05-09T21:58:11.944Z,4.93
2024-05-09T22:00:46.460Z,4.70
2024-05-09T22:03:14.564Z,4.50
2024-05-09T22:05:45.182Z,4.60
2024-05-09T22:08:13.278Z,4.28
2024-05-09T22:10:43.651Z,4.65
2024-05-09T22:13:11.123Z,4.45
2024-05-09T22:15:44.657Z,4.80
2024-05-09T22:18:12.243Z,4.63
2024-05-09T22:20:45.426Z,4.40
2024-05-09T22:23:14.908Z,5.03
2024-05-09T22:25:45.153Z,4.18
2024-05-09T22:28:15.367Z,4.30
2024-05-09T22:30:48.400Z,4.38
2024-05-09T22:33:16.077Z,4.60
2024-05-09T22:35:47.595Z,4.32
2024-05-09T22:38:15.001Z,4.15
2024-05-09T22:40:48.561Z,4.07
2024-05-09T22:43:19.542Z,4.50
2024-05-09T22:45:52.774Z,4.60
2024-05-09T22:48:20.702Z,4.70
2024-05-09T22:50:50.784Z,4.60
2024-05-09T22:53:18.626Z,4.40
2024-05-09T22:55:48.597Z,4.60
2024-05-09T22:58:16.093Z,4.60
2024-05-09T23:00:46.452Z,4.68
2024-05-09T23:03:16.854Z,4.57
2024-05-09T23:05:47.494Z,4.50
2024-05-09T23:08:14.833Z,4.47
2024-05-09T23:10:44.981Z,4.55
2024-05-09T23:13:12.605Z,4.50
2024-05-09T23:15:42.778Z,4.43
2024-05-09T23:18:10.596Z,4.55
2024-05-09T23:20:43.453Z,4.43
2024-05-09T23:23:12.106Z,4.40
2024-05-09T23:25:42.778Z,4.63
2024-05-09T23:28:10.471Z,4.40
2024-05-09T23:30:41.748Z,4.60
2024-05-09T23:33:11.307Z,4.03
2024-05-09T23:35:45.064Z,4.53
2024-05-09T23:38:13.110Z,4.50
2024-05-09T23:40:43.742Z,4.70
2024-05-09T23:43:12.528Z,4.53
2024-05-09T23:45:43.882Z,4.75
2024-05-09T23:48:11.765Z,4.30
2024-05-09T23:50:44.607Z,4.70
2024-05-09T23:53:12.080Z,4.75
2024-05-09T23:55:42.284Z,4.30
2024-05-09T23:58:09.832Z,4.25
